Latest Weather Observations for Wynyard

IDT60801

Issued at 3:02 pm EST Sunday 31 July 2016 (issued every 30 minutes, with the page automatically refreshed every 10 minutes)

About weather observations | Map of weather stations | Latest weather observations for TAS | Other Formats
Station Details ID: 091107 Name: WYNYARD AIRPORT Lat: -41.00 Lon: 145.73 Height: 12.0 m
Data from the previous 72 hours. | See also: Recent months at Wynyard
Date/Time
EST
Temp
°C
App
Temp
°C
Dew
Point
°C
Rel
Hum
%
Delta-T
°C
Wind Press
QNH
hPa
Press
MSL
hPa
Rain since
9am
mm
Dir  Spd
km/h
Gust
km/h
Spd
kts
Gust
kts
31/03:00pm 13.3 8.7 5.7 60 3.6 W 19 28 10 15 1011.4 1011.5 0.0
31/02:30pm 13.6 9.5 6.0 60 3.6 W 17 20 9 11 1011.3 1011.4 0.0
31/02:00pm 13.6 8.2 6.2 61 3.5 W 24 32 13 17 1011.2 1011.3 0.0
31/01:30pm 13.7 7.7 5.1 56 4.0 W 26 33 14 18 1011.2 1011.3 0.0
31/01:00pm 13.7 7.9 6.3 61 3.5 W 26 35 14 19 1011.2 1011.3 0.0
31/12:30pm 12.6 6.1 6.4 66 2.9 WSW 30 39 16 21 1011.2 1011.3 0.0
31/12:00pm 12.0 4.9 6.5 69 2.6 W 33 46 18 25 1011.6 1011.7 0.0
31/11:30am 12.8 6.0 6.8 67 2.9 WSW 32 44 17 24 1011.4 1011.5 0.0
31/11:00am 12.4 8.1 6.9 69 2.6 W 19 30 10 16 1012.0 1012.1 0.0
31/10:30am 12.3 8.0 8.0 75 2.1 W 20 28 11 15 1011.8 1011.9 0.0
31/10:00am 11.4 6.7 7.7 78 1.8 W 22 30 12 16 1011.5 1011.6 0.0
31/09:30am 10.7 5.9 7.2 79 1.7 W 22 32 12 17 1011.2 1011.3 0.0
31/09:00am 9.8 5.0 7.2 84 1.2 W 22 32 12 17 1010.9 1011.0 9.8
31/08:30am 8.1 4.9 6.9 92 0.6 W 13 20 7 11 1010.6 1010.7 9.8
31/08:00am 6.8 3.3 5.4 91 0.6 WSW 13 15 7 8 1010.2 1010.3 9.8
31/07:30am 7.3 2.7 5.6 89 0.8 WNW 19 22 10 12 1009.5 1009.6 9.6
31/07:00am 7.3 3.5 5.8 90 0.7 WNW 15 17 8 9 1009.0 1009.1 9.6
31/06:30am 8.3 4.3 6.6 89 0.8 W 17 24 9 13 1008.7 1008.8 9.6
31/06:00am 8.3 3.7 6.3 87 0.9 WNW 20 24 11 13 1007.9 1008.0 9.6
31/05:30am 8.4 4.7 6.5 88 0.9 W 15 19 8 10 1008.0 1008.1 9.4
31/05:17am 8.5 3.8 6.1 85 1.1 W 20 24 11 13 1007.6 1007.7 9.4
31/05:00am 9.3 4.4 6.7 84 1.2 W 22 44 12 24 1007.5 1007.6 9.4
31/04:59am 9.3 4.4 6.7 84 1.2 W 22 44 12 24 1007.6 1007.7 9.4
31/04:30am 9.2 5.2 6.5 83 1.3 W 17 22 9 12 1006.9 1007.0 8.8
31/04:00am 9.4 5.5 7.2 86 1.0 W 17 22 9 12 1006.9 1007.0 8.8
31/03:30am 9.2 5.2 6.6 84 1.2 WNW 17 20 9 11 1006.6 1006.7 8.8
31/03:00am 10.5 5.4 7.6 82 1.4 W 24 33 13 18 1006.4 1006.5 8.8
31/02:30am 11.3 5.5 8.0 80 1.6 W 28 41 15 22 1006.3 1006.4 8.8
31/02:00am 11.4 5.8 8.6 83 1.4 W 28 41 15 22 1006.0 1006.1 8.8
31/01:30am 11.9 6.7 10.1 89 0.9 WNW 28 37 15 20 1005.6 1005.7 8.8
31/01:20am 12.0 7.3 10.6 91 0.7 WNW 26 37 14 20 1005.5 1005.6 8.8
31/01:12am 11.9 6.8 10.6 92 0.7 NW 28 50 15 27 1005.6 1005.7 8.8
31/01:06am 11.9 6.9 10.8 93 0.6 NW 28 50 15 27 1005.6 1005.7 8.8
31/01:00am 11.8 6.3 10.7 93 0.6 NW 30 46 16 25 1005.8 1005.9 8.8
31/12:50am 11.8 6.0 10.7 93 0.6 NW 32 50 17 27 1006.0 1006.1 8.6
31/12:45am 11.8 5.9 10.5 92 0.7 NW 32 46 17 25 1005.9 1006.0 8.0
31/12:30am 11.9 6.0 10.5 91 0.7 NW 32 52 17 28 1006.0 1006.1 6.2
31/12:26am 12.0 5.9 10.4 90 0.8 NW 33 52 18 28 1006.0 1006.1 6.0
31/12:19am 12.2 5.6 10.1 87 1.1 NNW 35 48 19 26 1006.0 1006.1 5.2
31/12:00am 12.7 6.1 9.9 83 1.4 NNW 35 50 19 27 1006.1 1006.2 4.6
 
Date/Time
EST
Temp
°C
App
Temp
°C
Dew
Point
°C
Rel
Hum
%
Delta-T
°C
Wind Press
QNH
hPa
Press
MSL
hPa
Rain since
9am
mm
Dir  Spd
km/h
Gust
km/h
Spd
kts
Gust
kts
30/11:49pm 12.7 6.6 9.9 83 1.4 NW 32 50 17 27 1006.3 1006.4 4.6
30/11:30pm 12.4 7.1 10.0 85 1.2 NNW 28 41 15 22 1006.6 1006.7 4.6
30/11:00pm 12.1 7.1 9.7 85 1.2 NNW 26 43 14 23 1007.1 1007.2 4.6
30/10:30pm 11.7 7.5 9.6 87 1.1 NNW 22 33 12 18 1007.9 1008.0 4.4
30/10:00pm 11.9 8.0 9.5 85 1.2 NNW 20 33 11 18 1008.4 1008.5 4.4
30/09:30pm 11.6 8.0 9.7 88 1.0 NNW 19 28 10 15 1009.2 1009.3 4.0
30/09:10pm 11.7 7.5 9.8 88 1.0 NNW 22 33 12 18 1009.3 1009.4 4.0
30/09:00pm 11.8 8.2 9.9 88 1.0 NNW 19 28 10 15 1009.3 1009.4 3.8
30/08:57pm 11.8 8.0 9.9 88 1.0 NNW 20 32 11 17 1009.4 1009.5 3.8
30/08:30pm 11.9 8.2 9.6 86 1.2 NNW 19 30 10 16 1009.8 1009.9 3.8
30/08:00pm 11.8 8.2 9.7 87 1.1 N 19 28 10 15 1009.9 1010.0 3.6
30/07:30pm 11.5 8.8 10.4 93 0.6 NNW 15 20 8 11 1010.2 1010.3 3.6
30/07:08pm 9.3 7.3 8.7 96 0.3 WSW 9 11 5 6 1010.7 1010.8 3.6
30/07:00pm 8.9 6.8 8.3 96 0.3 SW 9 13 5 7 1010.7 1010.8 3.6
30/06:30pm 8.3 6.0 7.5 95 0.4 ESE 9 13 5 7 1010.8 1010.9 3.6
30/06:24pm 8.1 5.8 7.3 95 0.4 ESE 9 13 5 7 1010.8 1010.9 3.6
30/06:02pm 7.7 5.7 7.0 95 0.3 SSW 7 11 4 6 1011.7 1011.8 3.0
30/06:00pm 7.7 5.7 7.0 95 0.3 SW 7 11 4 6 1011.8 1011.9 3.0
30/05:30pm 7.6 4.7 6.7 94 0.4 SSW 11 15 6 8 1012.0 1012.1 2.8
30/05:11pm 7.7 4.5 6.8 94 0.4 SSE 13 13 7 7 1012.1 1012.2 2.8
30/05:00pm 7.6 5.1 6.7 94 0.4 SSE 9 17 5 9 1012.3 1012.4 2.8
30/04:30pm 7.5 5.3 6.4 93 0.5 SSE 7 11 4 6 1012.8 1012.9 2.2
30/04:09pm 7.5 4.6 6.3 92 0.5 S 11 17 6 9 1013.4 1013.5 1.2
30/04:00pm 7.7 4.4 6.5 92 0.5 SE 13 19 7 10 1013.3 1013.4 1.0
30/03:44pm 7.8 4.5 6.6 92 0.6 ESE 13 17 7 9 1013.5 1013.6 0.8
30/03:30pm 7.7 5.1 6.3 91 0.6 E 9 17 5 9 1013.8 1013.9 0.6
30/03:00pm 7.8 4.8 6.1 89 0.8 E 11 17 6 9 1014.5 1014.6 0.2
30/02:45pm 8.1 5.5 5.9 86 1.0 E 9 19 5 10 1014.1 1014.2 0.2
30/02:30pm 8.4 4.9 5.3 81 1.4 E 13 17 7 9 1014.4 1014.5 0.0
30/02:27pm 8.5 5.4 5.4 81 1.4 E 11 17 6 9 1014.3 1014.4 0.0
30/02:05pm 8.8 5.7 5.4 79 1.5 E 11 15 6 8 1014.4 1014.5 0.0
30/02:00pm 8.8 5.7 5.4 79 1.5 E 11 15 6 8 1014.6 1014.7 0.0
30/01:53pm 8.8 6.0 5.2 78 1.6 E 9 15 5 8 1014.9 1015.0 0.0
30/01:30pm 9.2 6.2 4.2 71 2.2 E 9 15 5 8 1015.4 1015.5 0.0
30/01:00pm 9.3 6.3 3.9 69 2.4 ENE 9 13 5 7 1016.0 1016.1 0.0
30/12:30pm 9.9 6.9 4.1 67 2.6 E 9 13 5 7 1016.6 1016.7 0.0
30/12:00pm 10.0 6.9 3.7 65 2.8 ENE 9 11 5 6 1017.2 1017.2 0.0
30/11:30am 9.3 6.2 3.7 68 2.4 ESE 9 15 5 8 1017.8 1017.8 0.0
30/11:00am 8.4 6.8 4.6 77 1.7 ESE 2 6 1 3 1018.4 1018.4 0.0
30/10:30am 7.8 6.5 4.2 78 1.6 CALM 0 6 0 3 1018.9 1018.9 0.0
30/10:00am 6.8 4.4 4.5 85 1.0 NW 6 9 3 5 1019.0 1019.0 0.0
30/09:30am 5.3 2.3 4.3 93 0.4 WNW 9 11 5 6 1019.1 1019.1 0.0
30/09:00am 3.6 0.4 3.0 96 0.2 WNW 9 11 5 6 1019.1 1019.1 0.0
30/08:30am 1.7 -2.2 1.1 96 0.2 WNW 11 13 6 7 1019.3 1019.3 0.0
30/08:00am 1.0 -2.3 0.4 96 0.2 W 7 9 4 5 1019.3 1019.3 0.0
30/07:30am -0.2 -4.4 -0.9 95 0.2 W 11 13 6 7 1019.3 1019.3 0.0
30/07:00am 0.3 -3.8 -0.4 95 0.2 WNW 11 15 6 8 1019.3 1019.3 0.0
30/06:30am 0.8 -2.9 0.1 95 0.3 SW 9 13 5 7 1019.3 1019.3 0.0
30/06:00am 0.5 -2.7 -0.2 95 0.2 WSW 6 9 3 5 1019.4 1019.4 0.0
30/05:30am 1.1 -2.2 0.4 95 0.3 W 7 9 4 5 1019.4 1019.4 0.0
30/05:00am 0.8 -3.3 -0.1 94 0.3 WSW 11 13 6 7 1019.2 1019.2 0.0
30/04:30am 1.2 -2.1 0.3 94 0.3 SW 7 13 4 7 1019.0 1019.0 0.0
30/04:00am 1.9 -1.6 1.0 94 0.3 WSW 9 13 5 7 1019.1 1019.1 0.0
30/03:30am 2.1 -1.0 1.2 94 0.3 W 7 11 4 6 1019.2 1019.2 0.0
30/03:00am 1.6 -2.8 0.6 93 0.4 W 13 13 7 7 1019.3 1019.3 0.0
30/02:30am 2.2 -2.1 1.0 92 0.5 W 13 17 7 9 1019.1 1019.1 0.0
30/02:00am 2.9 -0.5 1.6 91 0.5 WSW 9 11 5 6 1018.7 1018.7 0.0
30/01:30am 3.1 -0.8 1.2 87 0.7 W 11 13 6 7 1018.5 1018.5 0.0
30/01:00am 4.4 0.3 2.3 86 0.8 WNW 13 17 7 9 1018.3 1018.3 0.0
30/12:30am 5.2 0.3 1.7 78 1.4 WNW 17 20 9 11 1018.3 1018.3 0.0
30/12:00am 5.0 0.9 2.0 81 1.2 WNW 13 15 7 8 1018.3 1018.3 0.0
 
Date/Time
EST
Temp
°C
App
Temp
°C
Dew
Point
°C
Rel
Hum
%
Delta-T
°C
Wind Press
QNH
hPa
Press
MSL
hPa
Rain since
9am
mm
Dir  Spd
km/h
Gust
km/h
Spd
kts
Gust
kts
29/11:30pm 6.3 1.1 2.6 77 1.5 WNW 19 20 10 11 1018.2 1018.2 0.0
29/11:00pm 5.6 0.9 2.9 83 1.1 WNW 17 20 9 11 1018.0 1018.0 0.0
29/10:30pm 6.2 1.8 2.7 78 1.4 W 15 17 8 9 1017.8 1017.8 0.0
29/10:00pm 7.2 2.9 3.4 77 1.6 WNW 15 19 8 10 1017.6 1017.6 0.0
29/09:30pm 7.8 2.8 3.7 75 1.8 WSW 19 26 10 14 1017.0 1017.0 0.0
29/09:00pm 8.5 3.3 3.6 71 2.1 WSW 20 30 11 16 1016.5 1016.6 0.0
29/08:30pm 9.1 4.5 3.5 68 2.4 WSW 17 33 9 18 1016.0 1016.1 0.0
29/08:00pm 9.3 4.8 4.3 71 2.2 WSW 17 32 9 17 1015.3 1015.4 0.0
29/07:30pm 9.4 4.1 5.0 74 2.0 WSW 22 35 12 19 1014.7 1014.8 0.0
29/07:00pm 9.4 3.7 5.0 74 2.0 WSW 24 32 13 17 1014.0 1014.1 0.0
29/06:47pm 9.8 3.5 5.6 75 1.9 WSW 28 46 15 25 1013.8 1013.9 0.0
29/06:30pm 10.3 3.3 5.9 74 2.0 WSW 32 44 17 24 1013.4 1013.5 0.0
29/06:00pm 10.3 2.8 6.5 77 1.8 WSW 35 50 19 27 1012.9 1013.0 0.0
29/05:57pm 10.5 3.6 6.6 77 1.8 WSW 32 50 17 27 1012.9 1013.0 0.0
29/05:30pm 10.4 4.1 7.5 82 1.4 WSW 30 41 16 22 1012.5 1012.6 0.0
29/05:00pm 11.2 4.8 7.1 76 2.0 WSW 30 48 16 26 1011.8 1011.9 0.0
29/04:32pm 11.8 5.1 8.1 78 1.8 W 33 54 18 29 1011.5 1011.6 0.0
29/04:30pm 11.8 5.3 8.3 79 1.7 W 32 43 17 23 1011.5 1011.6 0.0
29/04:06pm 11.9 5.5 8.7 81 1.6 W 32 46 17 25 1011.2 1011.3 0.0
29/04:00pm 11.8 5.5 9.0 83 1.4 W 32 39 17 21 1011.2 1011.3 0.0
29/03:56pm 12.0 5.8 9.2 83 1.4 W 32 43 17 23 1011.2 1011.3 0.0
29/03:30pm 13.1 6.0 8.2 72 2.4 W 35 54 19 29 1011.0 1011.1 0.0
29/03:15pm 13.1 6.6 8.2 72 2.4 W 32 52 17 28 1011.0 1011.1 0.0
29/03:00pm 13.1 5.8 8.6 74 2.3 W 37 50 20 27 1010.9 1011.0 0.0
29/02:30pm 13.0 6.5 8.1 72 2.4 W 32 50 17 27 1010.7 1010.8 0.0
29/02:16pm 13.1 6.1 8.4 73 2.3 WNW 35 54 19 29 1010.7 1010.8 0.0
29/02:00pm 13.8 5.9 7.8 67 3.0 W 39 54 21 29 1010.7 1010.8 0.0
29/01:31pm 13.5 5.6 7.9 69 2.8 W 39 61 21 33 1010.8 1010.9 0.0
29/01:30pm 13.6 5.7 8.0 69 2.8 W 39 52 21 28 1010.8 1010.9 0.0
29/01:00pm 13.1 6.0 8.2 72 2.4 W 35 48 19 26 1011.1 1011.2 0.0
29/12:30pm 12.6 4.7 7.7 72 2.4 W 39 57 21 31 1011.4 1011.5 0.0
29/12:04pm 12.2 4.3 7.7 74 2.2 W 39 69 21 37 1011.5 1011.6 0.0
29/12:00pm 12.3 5.4 8.8 79 1.7 W 35 50 19 27 1011.5 1011.6 0.0
29/11:53am 12.1 5.3 9.1 82 1.5 W 35 52 19 28 1011.7 1011.8 0.0
29/11:37am 11.5 2.9 8.0 79 1.7 W 43 65 23 35 1011.8 1011.9 0.0
29/11:35am 11.9 4.1 8.4 79 1.7 W 39 57 21 31 1012.0 1012.1 0.0
29/11:30am 13.1 5.8 8.6 74 2.2 W 37 48 20 26 1011.8 1011.9 0.0
29/11:18am 12.7 5.0 8.6 76 2.0 W 39 57 21 31 1011.8 1011.9 0.0
29/11:00am 12.2 5.0 9.0 81 1.6 W 37 52 20 28 1011.9 1012.0 0.0
29/10:57am 12.0 5.6 9.4 84 1.3 W 33 52 18 28 1012.0 1012.1 0.0
29/10:55am 11.9 5.8 9.6 86 1.2 W 32 44 17 24 1012.0 1012.1 0.0
29/10:33am 11.8 5.5 8.8 82 1.5 W 32 43 17 23 1012.1 1012.2 0.0
29/10:30am 12.1 6.4 8.4 78 1.8 W 28 41 15 22 1012.1 1012.2 0.0
29/10:00am 12.8 7.3 9.1 78 1.9 W 28 43 15 23 1011.9 1012.0 0.0
29/09:30am 12.0 5.3 8.3 78 1.8 W 33 46 18 25 1012.1 1012.2 0.0
29/09:00am 11.3 4.8 8.2 81 1.5 WNW 32 44 17 24 1012.3 1012.4 0.2
29/08:30am 10.2 5.0 7.4 83 1.3 WNW 24 32 13 17 1012.3 1012.4 0.2
29/08:00am 9.5 5.0 6.9 84 1.2 WNW 20 26 11 14 1012.4 1012.5 0.2
29/07:30am 9.4 5.0 6.5 82 1.3 W 19 24 10 13 1012.5 1012.6 0.2
29/07:00am 9.9 5.4 7.0 82 1.4 W 20 26 11 14 1012.7 1012.8 0.2
29/06:30am 9.3 5.0 6.9 85 1.1 WNW 19 26 10 14 1012.6 1012.7 0.2
29/06:00am 9.6 5.2 7.2 85 1.1 WNW 20 24 11 13 1012.4 1012.5 0.2
29/05:30am 9.7 5.4 7.1 84 1.2 WNW 19 26 10 14 1012.5 1012.6 0.2
29/05:00am 9.4 4.9 7.0 85 1.1 WNW 20 30 11 16 1012.5 1012.6 0.2
29/04:30am 9.5 5.0 7.1 85 1.1 WNW 20 28 11 15 1012.7 1012.8 0.2
29/04:00am 9.2 5.2 6.5 83 1.3 WNW 17 22 9 12 1012.7 1012.8 0.2
29/03:30am 9.5 5.2 6.8 83 1.3 WNW 19 24 10 13 1012.8 1012.9 0.2
29/03:00am 9.7 4.8 7.1 84 1.2 WNW 22 35 12 19 1013.0 1013.1 0.2
29/02:30am 9.7 4.4 7.0 83 1.3 WNW 24 35 13 19 1013.4 1013.5 0.2
29/02:00am 9.7 4.9 7.3 85 1.1 WNW 22 35 12 19 1013.4 1013.5 0.2
29/01:30am 9.7 4.9 7.5 86 1.0 WNW 22 32 12 17 1013.7 1013.8 0.2
29/01:00am 9.4 5.1 7.7 89 0.8 W 20 33 11 18 1013.8 1013.9 0.2
29/12:34am 9.5 6.3 8.3 92 0.6 WNW 15 20 8 11 1014.1 1014.2 0.2
29/12:30am 9.4 6.5 8.2 92 0.6 WNW 13 20 7 11 1014.1 1014.2 0.2
29/12:12am 9.7 5.6 8.0 89 0.8 WNW 19 24 10 13 1014.3 1014.4 0.2
29/12:00am 9.8 6.4 7.7 87 1.0 WNW 15 19 8 10 1014.5 1014.6 0.2
 
Date/Time
EST
Temp
°C
App
Temp
°C
Dew
Point
°C
Rel
Hum
%
Delta-T
°C
Wind Press
QNH
hPa
Press
MSL
hPa
Rain since
9am
mm
Dir  Spd
km/h
Gust
km/h
Spd
kts
Gust
kts
28/11:30pm 9.2 5.4 7.5 89 0.8 WNW 17 24 9 13 1014.6 1014.7 0.2
28/11:17pm 9.3 5.1 7.6 89 0.8 WNW 19 26 10 14 1014.8 1014.9 0.2
28/11:00pm 9.6 5.3 7.7 88 0.9 WNW 20 28 11 15 1014.8 1014.9 0.2
28/10:52pm 9.5 5.1 7.4 87 1.0 WNW 20 30 11 16 1014.8 1014.9 0.2
28/10:30pm 9.8 5.4 7.2 84 1.2 WNW 20 28 11 15 1014.9 1015.0 0.2
28/10:00pm 9.7 4.8 7.1 84 1.2 WNW 22 32 12 17 1015.1 1015.2 0.2
28/09:30pm 9.4 5.5 7.3 87 1.0 NW 17 24 9 13 1015.5 1015.6 0.2
28/09:00pm 9.2 4.9 7.0 86 1.0 NW 19 22 10 12 1015.8 1015.9 0.2
28/08:30pm 9.3 6.7 6.0 80 1.5 NW 9 15 5 8 1015.9 1016.0 0.2
28/08:00pm 8.8 4.9 5.5 80 1.5 W 15 22 8 12 1015.9 1016.0 0.2
28/07:30pm 9.2 4.4 5.8 79 1.6 W 20 33 11 18 1015.8 1015.9 0.2
28/07:00pm 9.5 4.0 5.9 78 1.6 W 24 39 13 21 1015.6 1015.7 0.2
28/06:30pm 9.7 3.5 6.1 78 1.7 W 28 35 15 19 1015.4 1015.5 0.2
28/06:00pm 10.1 3.9 6.3 77 1.8 W 28 37 15 20 1014.8 1014.9 0.2
28/05:30pm 9.9 2.8 6.6 80 1.5 W 33 46 18 25 1014.9 1015.0 0.2
28/05:00pm 10.3 2.6 7.0 80 1.6 W 37 48 20 26 1014.5 1014.6 0.2
28/04:39pm 10.2 3.2 6.9 80 1.6 W 33 52 18 28 1014.3 1014.4 0.2
28/04:30pm 10.7 2.7 7.4 80 1.6 W 39 52 21 28 1014.2 1014.3 0.2
28/04:00pm 10.9 3.1 8.1 83 1.4 W 39 54 21 29 1013.8 1013.9 0.2
28/03:51pm 10.5 2.2 7.7 83 1.3 W 41 59 22 32 1013.7 1013.8 0.2
28/03:50pm 10.5 1.8 7.7 83 1.3 W 43 59 23 32 1013.7 1013.8 0.2
28/03:48pm 10.5 2.2 7.9 84 1.3 W 41 59 22 32 1013.6 1013.7 0.2
28/03:34pm 10.6 3.7 8.7 88 0.9 W 35 46 19 25 1013.5 1013.6 0.2
28/03:30pm 10.9 4.0 9.0 88 0.9 W 35 46 19 25 1013.4 1013.5 0.0
28/03:21pm 10.9 4.3 8.7 86 1.1 W 33 46 18 25 1013.4 1013.5 0.0
28/03:18pm 11.1 4.5 8.7 85 1.2 W 33 46 18 25 1013.3 1013.4 0.0

Other Formats:

Comma delimited format used in spreadsheet applications
http://www.bom.gov.au/fwo/IDT60801/IDT60801.95957.axf

JavaScript Object Notation format (JSON) in row-major order
http://www.bom.gov.au/fwo/IDT60801/IDT60801.95957.json